sensor_id;sensor_type;location;lat;lon;timestamp;pressure;altitude;pressure_sealevel;temperature;humidity
35649;BME280;21768;48.562;13.414;2023-07-13T00:00:41;97228.88;;;21.26;76.36
35649;BME280;21768;48.562;13.414;2023-07-13T00:03:07;97234.75;;;21.22;76.59
35649;BME280;21768;48.562;13.414;2023-07-13T00:05:33;97240.88;;;21.27;76.32
35649;BME280;21768;48.562;13.414;2023-07-13T00:07:58;97252.88;;;21.29;76.60
35649;BME280;21768;48.562;13.414;2023-07-13T00:10:24;97257.19;;;21.32;76.71
35649;BME280;21768;48.562;13.414;2023-07-13T00:12:50;97258.06;;;21.32;76.76
35649;BME280;21768;48.562;13.414;2023-07-13T00:15:19;97256.38;;;21.33;76.68
35649;BME280;21768;48.562;13.414;2023-07-13T00:17:52;97259.03;;;21.37;76.62
35649;BME280;21768;48.562;13.414;2023-07-13T00:20:18;97246.34;;;21.44;76.78
35649;BME280;21768;48.562;13.414;2023-07-13T00:22:46;97234.44;;;21.49;76.63
35649;BME280;21768;48.562;13.414;2023-07-13T00:25:12;97230.25;;;21.54;76.68
35649;BME280;21768;48.562;13.414;2023-07-13T00:27:38;97225.16;;;21.55;76.63
35649;BME280;21768;48.562;13.414;2023-07-13T00:30:04;97231.16;;;21.56;76.40
35649;BME280;21768;48.562;13.414;2023-07-13T00:32:30;97224.38;;;21.59;76.31
35649;BME280;21768;48.562;13.414;2023-07-13T00:34:56;97238.88;;;21.57;76.44
35649;BME280;21768;48.562;13.414;2023-07-13T00:37:23;97248.28;;;21.57;76.41
35649;BME280;21768;48.562;13.414;2023-07-13T00:39:48;97248.41;;;21.63;76.47
35649;BME280;21768;48.562;13.414;2023-07-13T00:42:14;97241.56;;;21.63;75.94
35649;BME280;21768;48.562;13.414;2023-07-13T00:44:39;97233.88;;;21.63;76.41
35649;BME280;21768;48.562;13.414;2023-07-13T00:47:05;97220.88;;;21.56;76.35
35649;BME280;21768;48.562;13.414;2023-07-13T00:49:32;97208.91;;;21.56;76.46
35649;BME280;21768;48.562;13.414;2023-07-13T00:52:06;97216.59;;;21.56;76.21
35649;BME280;21768;48.562;13.414;2023-07-13T00:54:44;97212.28;;;21.52;75.95
35649;BME280;21768;48.562;13.414;2023-07-13T00:57:14;97215.66;;;21.50;76.13
35649;BME280;21768;48.562;13.414;2023-07-13T00:59:43;97213.91;;;21.49;76.65
35649;BME280;21768;48.562;13.414;2023-07-13T01:02:10;97216.44;;;21.47;76.52
35649;BME280;21768;48.562;13.414;2023-07-13T01:04:36;97211.28;;;21.46;76.37
35649;BME280;21768;48.562;13.414;2023-07-13T01:07:04;97224.06;;;21.43;76.69
35649;BME280;21768;48.562;13.414;2023-07-13T01:09:31;97239.47;;;21.43;76.70
35649;BME280;21768;48.562;13.414;2023-07-13T01:11:56;97237.78;;;21.45;76.35
35649;BME280;21768;48.562;13.414;2023-07-13T01:14:22;97232.59;;;21.42;76.69
35649;BME280;21768;48.562;13.414;2023-07-13T01:16:48;97233.53;;;21.45;76.57
35649;BME280;21768;48.562;13.414;2023-07-13T01:19:25;97236.09;;;21.45;76.36
35649;BME280;21768;48.562;13.414;2023-07-13T01:22:08;97248.81;;;21.39;76.55
35649;BME280;21768;48.562;13.414;2023-07-13T01:24:40;97235.16;;;21.42;76.84
35649;BME280;21768;48.562;13.414;2023-07-13T01:27:07;97227.47;;;21.42;76.63
35649;BME280;21768;48.562;13.414;2023-07-13T01:29:34;97230.88;;;21.41;76.40
35649;BME280;21768;48.562;13.414;2023-07-13T01:32:00;97224.88;;;21.42;76.29
35649;BME280;21768;48.562;13.414;2023-07-13T01:34:29;97225.78;;;21.44;76.42
35649;BME280;21768;48.562;13.414;2023-07-13T01:36:54;97234.31;;;21.43;76.53
35649;BME280;21768;48.562;13.414;2023-07-13T01:39:23;97231.72;;;21.41;76.59
35649;BME280;21768;48.562;13.414;2023-07-13T01:41:49;97230.88;;;21.41;76.81
35649;BME280;21768;48.562;13.414;2023-07-13T01:44:14;97224.03;;;21.41;76.79
35649;BME280;21768;48.562;13.414;2023-07-13T01:46:39;97227.47;;;21.42;76.90
35649;BME280;21768;48.562;13.414;2023-07-13T01:49:05;97218.84;;;21.39;76.57
35649;BME280;21768;48.562;13.414;2023-07-13T01:51:30;97228.22;;;21.37;76.46
35649;BME280;21768;48.562;13.414;2023-07-13T01:53:56;97229.06;;;21.36;76.51
35649;BME280;21768;48.562;13.414;2023-07-13T01:56:21;97219.63;;;21.35;76.87
35649;BME280;21768;48.562;13.414;2023-07-13T01:58:47;97235.03;;;21.35;76.38
35649;BME280;21768;48.562;13.414;2023-07-13T02:01:12;97224.66;;;21.31;76.30
35649;BME280;21768;48.562;13.414;2023-07-13T02:03:37;97223.88;;;21.33;76.38
35649;BME280;21768;48.562;13.414;2023-07-13T02:06:03;97217.00;;;21.32;76.44
35649;BME280;21768;48.562;13.414;2023-07-13T02:08:28;97223.03;;;21.34;76.60
35649;BME280;21768;48.562;13.414;2023-07-13T02:10:54;97213.59;;;21.33;76.35
35649;BME280;21768;48.562;13.414;2023-07-13T02:13:19;97211.84;;;21.31;76.23
35649;BME280;21768;48.562;13.414;2023-07-13T02:15:45;97210.13;;;21.31;76.12
35649;BME280;21768;48.562;13.414;2023-07-13T02:18:10;97205.81;;;21.27;76.11
35649;BME280;21768;48.562;13.414;2023-07-13T02:20:35;97214.38;;;21.29;76.11
35649;BME280;21768;48.562;13.414;2023-07-13T02:23:01;97206.69;;;21.31;76.02
35649;BME280;21768;48.562;13.414;2023-07-13T02:25:26;97202.41;;;21.30;76.03
35649;BME280;21768;48.562;13.414;2023-07-13T02:27:52;97207.53;;;21.30;76.09
35649;BME280;21768;48.562;13.414;2023-07-13T02:30:18;97210.94;;;21.27;75.61
35649;BME280;21768;48.562;13.414;2023-07-13T02:32:43;97211.81;;;21.29;75.74
35649;BME280;21768;48.562;13.414;2023-07-13T02:35:09;97204.94;;;21.28;75.80
35649;BME280;21768;48.562;13.414;2023-07-13T02:37:35;97210.03;;;21.25;76.23
35649;BME280;21768;48.562;13.414;2023-07-13T02:40:01;97205.78;;;21.26;76.12
35649;BME280;21768;48.562;13.414;2023-07-13T02:42:29;97207.50;;;21.27;75.85
35649;BME280;21768;48.562;13.414;2023-07-13T02:44:54;97210.91;;;21.26;76.01
35649;BME280;21768;48.562;13.414;2023-07-13T02:47:20;97210.91;;;21.26;75.99
35649;BME280;21768;48.562;13.414;2023-07-13T02:49:45;97211.81;;;21.29;75.69
35649;BME280;21768;48.562;13.414;2023-07-13T02:52:10;97209.28;;;21.32;75.53
35649;BME280;21768;48.562;13.414;2023-07-13T02:54:36;97205.00;;;21.31;75.50
35649;BME280;21768;48.562;13.414;2023-07-13T02:57:02;97195.53;;;21.29;75.99
35649;BME280;21768;48.562;13.414;2023-07-13T02:59:27;97204.94;;;21.28;75.63
35649;BME280;21768;48.562;13.414;2023-07-13T03:01:52;97208.34;;;21.26;75.20
35649;BME280;21768;48.562;13.414;2023-07-13T03:04:18;97208.38;;;21.27;74.96
35649;BME280;21768;48.562;13.414;2023-07-13T03:06:44;97199.81;;;21.28;75.12
35649;BME280;21768;48.562;13.414;2023-07-13T03:09:10;97202.41;;;21.30;75.55
35649;BME280;21768;48.562;13.414;2023-07-13T03:11:35;97198.19;;;21.33;75.34
35649;BME280;21768;48.562;13.414;2023-07-13T03:14:00;97197.41;;;21.36;75.56
35649;BME280;21768;48.562;13.414;2023-07-13T03:16:26;97195.66;;;21.35;75.45
35649;BME280;21768;48.562;13.414;2023-07-13T03:18:51;97200.00;;;21.37;75.64
35649;BME280;21768;48.562;13.414;2023-07-13T03:21:17;97199.97;;;21.36;74.47
35649;BME280;21768;48.562;13.414;2023-07-13T03:23:42;97196.44;;;21.31;75.00
35649;BME280;21768;48.562;13.414;2023-07-13T03:26:13;97198.13;;;21.30;75.29
35649;BME280;21768;48.562;13.414;2023-07-13T03:28:39;97204.13;;;21.31;75.44
35649;BME280;21768;48.562;13.414;2023-07-13T03:31:08;97205.00;;;21.31;75.37
35649;BME280;21768;48.562;13.414;2023-07-13T03:33:34;97203.34;;;21.33;75.96
35649;BME280;21768;48.562;13.414;2023-07-13T03:36:00;97213.63;;;21.35;75.51
35649;BME280;21768;48.562;13.414;2023-07-13T03:38:25;97211.94;;;21.35;75.56
35649;BME280;21768;48.562;13.414;2023-07-13T03:40:51;97220.44;;;21.33;75.83
35649;BME280;21768;48.562;13.414;2023-07-13T03:43:16;97215.94;;;21.21;76.00
35649;BME280;21768;48.562;13.414;2023-07-13T03:45:42;97224.22;;;21.11;76.46
35649;BME280;21768;48.562;13.414;2023-07-13T03:48:07;97220.84;;;21.12;76.23
35649;BME280;21768;48.562;13.414;2023-07-13T03:50:32;97229.44;;;21.14;75.79
35649;BME280;21768;48.562;13.414;2023-07-13T03:52:59;97219.94;;;21.10;76.07
35649;BME280;21768;48.562;13.414;2023-07-13T03:55:25;97224.25;;;21.13;75.92
35649;BME280;21768;48.562;13.414;2023-07-13T03:57:59;97210.41;;;21.04;76.33
35649;BME280;21768;48.562;13.414;2023-07-13T04:00:25;97218.97;;;21.05;76.54
35649;BME280;21768;48.562;13.414;2023-07-13T04:02:51;97225.84;;;21.06;76.82
35649;BME280;21768;48.562;13.414;2023-07-13T04:05:16;97219.94;;;21.10;76.89
35649;BME280;21768;48.562;13.414;2023-07-13T04:07:42;97228.53;;;21.12;76.17
35649;BME280;21768;48.562;13.414;2023-07-13T04:10:07;97236.19;;;21.11;75.91
35649;BME280;21768;48.562;13.414;2023-07-13T04:12:33;97226.75;;;21.10;76.05
35649;BME280;21768;48.562;13.414;2023-07-13T04:14:58;97230.28;;;21.15;76.26
35649;BME280;21768;48.562;13.414;2023-07-13T04:17:23;97226.00;;;21.14;76.26
35649;BME280;21768;48.562;13.414;2023-07-13T04:19:49;97230.28;;;21.15;76.33
35649;BME280;21768;48.562;13.414;2023-07-13T04:22:14;97223.53;;;21.18;76.11
35649;BME280;21768;48.562;13.414;2023-07-13T04:24:40;97225.25;;;21.19;76.32
35649;BME280;21768;48.562;13.414;2023-07-13T04:27:06;97218.50;;;21.21;76.26
35649;BME280;21768;48.562;13.414;2023-07-13T04:29:31;97220.22;;;21.22;76.36
35649;BME280;21768;48.562;13.414;2023-07-13T04:31:57;97226.25;;;21.24;76.49
35649;BME280;21768;48.562;13.414;2023-07-13T04:34:22;97225.44;;;21.25;76.26
35649;BME280;21768;48.562;13.414;2023-07-13T04:36:49;97227.09;;;21.23;76.11
35649;BME280;21768;48.562;13.414;2023-07-13T04:39:15;97227.97;;;21.24;76.12
35649;BME280;21768;48.562;13.414;2023-07-13T04:41:40;97231.44;;;21.26;76.10
35649;BME280;21768;48.562;13.414;2023-07-13T04:44:06;97229.75;;;21.29;75.77
35649;BME280;21768;48.562;13.414;2023-07-13T04:46:31;97230.59;;;21.28;74.96
35649;BME280;21768;48.562;13.414;2023-07-13T04:48:56;97234.75;;;21.22;75.21
35649;BME280;21768;48.562;13.414;2023-07-13T04:51:22;97234.84;;;21.25;75.50
35649;BME280;21768;48.562;13.414;2023-07-13T04:53:48;97236.59;;;21.27;75.78
35649;BME280;21768;48.562;13.414;2023-07-13T04:56:13;97241.72;;;21.29;75.37
35649;BME280;21768;48.562;13.414;2023-07-13T04:58:39;97245.97;;;21.25;75.03
35649;BME280;21768;48.562;13.414;2023-07-13T05:01:05;97244.16;;;21.21;74.88
35649;BME280;21768;48.562;13.414;2023-07-13T05:03:31;97245.94;;;21.24;75.00
35649;BME280;21768;48.562;13.414;2023-07-13T05:06:02;97240.03;;;21.29;74.85
35649;BME280;21768;48.562;13.414;2023-07-13T05:08:28;97243.53;;;21.33;74.49
35649;BME280;21768;48.562;13.414;2023-07-13T05:10:53;97248.72;;;21.36;73.97
35649;BME280;21768;48.562;13.414;2023-07-13T05:13:19;97253.91;;;21.37;73.69
35649;BME280;21768;48.562;13.414;2023-07-13T05:15:45;97257.41;;;21.41;74.02
35649;BME280;21768;48.562;13.414;2023-07-13T05:18:10;97256.66;;;21.47;74.24
35649;BME280;21768;48.562;13.414;2023-07-13T05:20:36;97247.22;;;21.46;73.99
35649;BME280;21768;48.562;13.414;2023-07-13T05:23:01;97250.78;;;21.52;74.09
35649;BME280;21768;48.562;13.414;2023-07-13T05:25:26;97249.91;;;21.52;73.51
35649;BME280;21768;48.562;13.414;2023-07-13T05:27:52;97253.31;;;21.51;73.23
35649;BME280;21768;48.562;13.414;2023-07-13T05:30:17;97258.47;;;21.51;73.57
35649;BME280;21768;48.562;13.414;2023-07-13T05:32:43;97262.81;;;21.56;73.20
35649;BME280;21768;48.562;13.414;2023-07-13T05:35:08;97256.72;;;21.50;73.03
35649;BME280;21768;48.562;13.414;2023-07-13T05:37:34;97255.72;;;21.43;73.18
35649;BME280;21768;48.562;13.414;2023-07-13T05:39:59;97254.88;;;21.43;73.78
35649;BME280;21768;48.562;13.414;2023-07-13T05:42:25;97249.91;;;21.52;74.00
35649;BME280;21768;48.562;13.414;2023-07-13T05:44:50;97247.28;;;21.49;73.32
35649;BME280;21768;48.562;13.414;2023-07-13T05:47:15;97259.19;;;21.45;73.43
35649;BME280;21768;48.562;13.414;2023-07-13T05:49:41;97261.88;;;21.50;73.29
35649;BME280;21768;48.562;13.414;2023-07-13T05:52:07;97262.75;;;21.53;73.50
35649;BME280;21768;48.562;13.414;2023-07-13T05:54:32;97267.94;;;21.55;73.35
35649;BME280;21768;48.562;13.414;2023-07-13T05:56:57;97269.75;;;21.60;73.74
35649;BME280;21768;48.562;13.414;2023-07-13T05:59:23;97279.22;;;21.63;73.36
35649;BME280;21768;48.562;13.414;2023-07-13T06:01:49;97281.66;;;21.57;73.40
35649;BME280;21768;48.562;13.414;2023-07-13T06:04:14;97273.97;;;21.57;73.17
35649;BME280;21768;48.562;13.414;2023-07-13T06:06:39;97284.16;;;21.54;73.56
35649;BME280;21768;48.562;13.414;2023-07-13T06:09:05;97281.78;;;21.63;73.44
35649;BME280;21768;48.562;13.414;2023-07-13T06:11:30;97278.50;;;21.68;73.29
35649;BME280;21768;48.562;13.414;2023-07-13T06:13:56;97288.78;;;21.70;73.09
35649;BME280;21768;48.562;13.414;2023-07-13T06:16:22;97287.00;;;21.66;72.96
35649;BME280;21768;48.562;13.414;2023-07-13T06:18:48;97290.38;;;21.63;73.33
35649;BME280;21768;48.562;13.414;2023-07-13T06:21:15;97296.56;;;21.73;73.50
35649;BME280;21768;48.562;13.414;2023-07-13T06:23:41;97294.22;;;21.85;73.17
35649;BME280;21768;48.562;13.414;2023-07-13T06:26:07;97297.66;;;21.86;72.83
35649;BME280;21768;48.562;13.414;2023-07-13T06:28:34;97298.47;;;21.83;73.04
35649;BME280;21768;48.562;13.414;2023-07-13T06:31:00;97301.91;;;21.85;72.92
35649;BME280;21768;48.562;13.414;2023-07-13T06:33:26;97294.28;;;21.88;72.83
35649;BME280;21768;48.562;13.414;2023-07-13T06:35:52;97294.41;;;21.94;72.06
35649;BME280;21768;48.562;13.414;2023-07-13T06:38:18;97309.00;;;21.97;72.56
35649;BME280;21768;48.562;13.414;2023-07-13T06:40:43;97302.28;;;22.03;72.04
35649;BME280;21768;48.562;13.414;2023-07-13T06:43:09;97301.59;;;22.12;72.67
35649;BME280;21768;48.562;13.414;2023-07-13T06:45:43;97306.16;;;22.27;71.82
35649;BME280;21768;48.562;13.414;2023-07-13T06:48:11;97308.94;;;22.39;71.49
35649;BME280;21768;48.562;13.414;2023-07-13T06:50:36;97307.41;;;22.49;71.40
35649;BME280;21768;48.562;13.414;2023-07-13T06:53:02;97306.66;;;22.57;70.44
35649;BME280;21768;48.562;13.414;2023-07-13T06:55:27;97311.91;;;22.63;70.62
35649;BME280;21768;48.562;13.414;2023-07-13T06:57:53;97309.50;;;22.72;69.60
35649;BME280;21768;48.562;13.414;2023-07-13T07:00:18;97311.25;;;22.75;69.00
35649;BME280;21768;48.562;13.414;2023-07-13T07:02:44;97318.09;;;22.73;68.59
35649;BME280;21768;48.562;13.414;2023-07-13T07:05:09;97321.50;;;22.72;68.93
35649;BME280;21768;48.562;13.414;2023-07-13T07:07:34;97329.88;;;22.60;67.60
35649;BME280;21768;48.562;13.414;2023-07-13T07:10:00;97334.94;;;22.56;68.62
35649;BME280;21768;48.562;13.414;2023-07-13T07:12:25;97329.09;;;22.64;69.24
35649;BME280;21768;48.562;13.414;2023-07-13T07:14:51;97334.28;;;22.67;68.00
35649;BME280;21768;48.562;13.414;2023-07-13T07:17:16;97326.75;;;22.78;68.56
35649;BME280;21768;48.562;13.414;2023-07-13T07:19:41;97323.53;;;22.91;67.23
35649;BME280;21768;48.562;13.414;2023-07-13T07:22:07;97317.69;;;23.03;66.75
35649;BME280;21768;48.562;13.414;2023-07-13T07:24:32;97313.59;;;23.14;65.43
35649;BME280;21768;48.562;13.414;2023-07-13T07:26:58;97315.53;;;23.30;65.22
35649;BME280;21768;48.562;13.414;2023-07-13T07:29:23;97306.25;;;23.41;64.41
35649;BME280;21768;48.562;13.414;2023-07-13T07:31:51;97310.66;;;23.52;63.80
35649;BME280;21768;48.562;13.414;2023-07-13T07:34:17;97319.41;;;23.61;63.77
35649;BME280;21768;48.562;13.414;2023-07-13T07:36:42;97321.03;;;23.55;63.85
35649;BME280;21768;48.562;13.414;2023-07-13T07:39:08;97320.88;;;23.44;63.70
35649;BME280;21768;48.562;13.414;2023-07-13T07:41:33;97330.31;;;23.44;63.65
35649;BME280;21768;48.562;13.414;2023-07-13T07:43:58;97319.19;;;23.46;63.65
35649;BME280;21768;48.562;13.414;2023-07-13T07:46:24;97323.69;;;23.61;62.89
35649;BME280;21768;48.562;13.414;2023-07-13T07:48:49;97323.91;;;23.79;63.89
35649;BME280;21768;48.562;13.414;2023-07-13T07:51:14;97326.59;;;23.88;64.13
35649;BME280;21768;48.562;13.414;2023-07-13T07:53:40;97331.84;;;23.94;62.87
35649;BME280;21768;48.562;13.414;2023-07-13T07:56:05;97343.06;;;24.02;62.84
35649;BME280;21768;48.562;13.414;2023-07-13T07:58:30;97337.91;;;24.02;62.58
35649;BME280;21768;48.562;13.414;2023-07-13T08:01:05;97334.38;;;23.91;61.91
35649;BME280;21768;48.562;13.414;2023-07-13T08:03:31;97335.13;;;23.83;61.75
35649;BME280;21768;48.562;13.414;2023-07-13T08:05:57;97342.03;;;23.87;61.56
35649;BME280;21768;48.562;13.414;2023-07-13T08:08:22;97346.50;;;24.01;61.46
35649;BME280;21768;48.562;13.414;2023-07-13T08:10:48;97356.25;;;24.27;61.61
35649;BME280;21768;48.562;13.414;2023-07-13T08:13:13;97358.19;;;24.45;60.96
35649;BME280;21768;48.562;13.414;2023-07-13T08:15:38;97362.69;;;24.65;61.31
35649;BME280;21768;48.562;13.414;2023-07-13T08:18:05;97358.44;;;24.72;60.41
35649;BME280;21768;48.562;13.414;2023-07-13T08:20:31;97362.63;;;24.62;59.57
35649;BME280;21768;48.562;13.414;2023-07-13T08:22:56;97360.03;;;24.59;58.59
35649;BME280;21768;48.562;13.414;2023-07-13T08:25:22;97362.59;;;24.59;58.65
35649;BME280;21768;48.562;13.414;2023-07-13T08:27:48;97369.56;;;24.66;58.22
35649;BME280;21768;48.562;13.414;2023-07-13T08:30:13;97374.81;;;24.79;59.36
35649;BME280;21768;48.562;13.414;2023-07-13T08:32:39;97380.94;;;24.87;58.12
35649;BME280;21768;48.562;13.414;2023-07-13T08:35:05;97374.84;;;24.82;57.87
35649;BME280;21768;48.562;13.414;2023-07-13T08:37:30;97381.75;;;24.83;58.18
35649;BME280;21768;48.562;13.414;2023-07-13T08:39:56;97387.78;;;24.85;57.12
35649;BME280;21768;48.562;13.414;2023-07-13T08:42:39;97384.25;;;24.73;56.86
35649;BME280;21768;48.562;13.414;2023-07-13T08:45:21;97382.44;;;24.65;56.67
35649;BME280;21768;48.562;13.414;2023-07-13T08:48:11;97385.84;;;24.61;55.82
35649;BME280;21768;48.562;13.414;2023-07-13T08:50:50;97388.38;;;24.55;56.04
35649;BME280;21768;48.562;13.414;2023-07-13T08:53:16;97389.19;;;24.48;56.05
35649;BME280;21768;48.562;13.414;2023-07-13T08:55:42;97395.09;;;24.39;56.32
35649;BME280;21768;48.562;13.414;2023-07-13T08:58:13;97388.22;;;24.38;57.13
35649;BME280;21768;48.562;13.414;2023-07-13T09:03:25;97392.63;;;24.50;55.58
35649;BME280;21768;48.562;13.414;2023-07-13T09:05:58;97394.34;;;24.49;56.53
35649;BME280;21768;48.562;13.414;2023-07-13T09:16:25;97404.56;;;24.40;56.07
35649;BME280;21768;48.562;13.414;2023-07-13T09:18:56;97403.78;;;24.50;55.46
35649;BME280;21768;48.562;13.414;2023-07-13T09:21:36;97404.72;;;24.55;55.39
35649;BME280;21768;48.562;13.414;2023-07-13T09:26:54;97402.38;;;24.80;56.18
35649;BME280;21768;48.562;13.414;2023-07-13T09:29:26;97399.16;;;24.99;54.64
35649;BME280;21768;48.562;13.414;2023-07-13T09:31:54;97407.06;;;25.20;53.20
35649;BME280;21768;48.562;13.414;2023-07-13T09:34:20;97403.69;;;25.32;52.42
35649;BME280;21768;48.562;13.414;2023-07-13T09:36:46;97409.69;;;25.28;52.93
35649;BME280;21768;48.562;13.414;2023-07-13T09:44:47;97419.97;;;25.20;50.32
35649;BME280;21768;48.562;13.414;2023-07-13T09:47:24;97421.72;;;25.27;50.45
35649;BME280;21768;48.562;13.414;2023-07-13T09:50:00;97420.97;;;25.40;50.68
35649;BME280;21768;48.562;13.414;2023-07-13T09:52:26;97424.47;;;25.47;51.12
35649;BME280;21768;48.562;13.414;2023-07-13T09:54:54;97423.66;;;25.56;48.22
35649;BME280;21768;48.562;13.414;2023-07-13T09:57:26;97426.19;;;25.50;47.79
35649;BME280;21768;48.562;13.414;2023-07-13T09:59:53;97426.28;;;25.60;49.96
35649;BME280;21768;48.562;13.414;2023-07-13T10:02:33;97420.38;;;25.81;48.92
35649;BME280;21768;48.562;13.414;2023-07-13T10:05:02;97407.56;;;25.96;47.15
35649;BME280;21768;48.562;13.414;2023-07-13T10:07:30;97411.84;;;25.91;47.23
35649;BME280;21768;48.562;13.414;2023-07-13T10:09:58;97412.63;;;25.83;46.96
35649;BME280;21768;48.562;13.414;2023-07-13T10:12:26;97417.75;;;25.69;47.36
35649;BME280;21768;48.562;13.414;2023-07-13T10:14:58;97419.50;;;25.71;48.38
35649;BME280;21768;48.562;13.414;2023-07-13T10:17:32;97422.19;;;25.91;47.11
35649;BME280;21768;48.562;13.414;2023-07-13T10:20:06;97430.81;;;25.95;46.83
35649;BME280;21768;48.562;13.414;2023-07-13T10:22:45;97428.09;;;25.70;48.12
35649;BME280;21768;48.562;13.414;2023-07-13T10:25:20;97418.59;;;25.68;45.30
35649;BME280;21768;48.562;13.414;2023-07-13T10:27:50;97428.91;;;25.65;48.38
35649;BME280;21768;48.562;13.414;2023-07-13T10:30:20;97421.94;;;25.58;48.49
35649;BME280;21768;48.562;13.414;2023-07-13T10:32:49;97431.38;;;25.51;49.13
35649;BME280;21768;48.562;13.414;2023-07-13T10:35:16;97430.56;;;25.60;49.30
35649;BME280;21768;48.562;13.414;2023-07-13T10:38:02;97423.81;;;25.72;48.66
35649;BME280;21768;48.562;13.414;2023-07-13T10:40:59;97422.19;;;25.91;49.38
35649;BME280;21768;48.562;13.414;2023-07-13T10:43:33;97425.69;;;26.08;46.21
35649;BME280;21768;48.562;13.414;2023-07-13T10:46:03;97427.44;;;26.16;45.68
35649;BME280;21768;48.562;13.414;2023-07-13T10:48:30;97415.44;;;26.30;46.67
35649;BME280;21768;48.562;13.414;2023-07-13T10:50:57;97418.06;;;26.36;47.20
35649;BME280;21768;48.562;13.414;2023-07-13T10:53:34;97417.13;;;26.28;47.07
35649;BME280;21768;48.562;13.414;2023-07-13T10:56:04;97418.84;;;26.24;44.97
35649;BME280;21768;48.562;13.414;2023-07-13T10:58:41;97423.97;;;26.10;45.04
35649;BME280;21768;48.562;13.414;2023-07-13T11:01:16;97423.94;;;26.04;46.23
35649;BME280;21768;48.562;13.414;2023-07-13T11:03:47;97422.19;;;25.91;45.38
35649;BME280;21768;48.562;13.414;2023-07-13T11:06:34;97421.31;;;25.89;45.20
35649;BME280;21768;48.562;13.414;2023-07-13T11:11:56;97419.53;;;25.81;43.45
35649;BME280;21768;48.562;13.414;2023-07-13T11:16:56;97422.13;;;25.82;42.42
35649;BME280;21768;48.562;13.414;2023-07-13T11:24:50;97442.50;;;25.39;42.48
35649;BME280;21768;48.562;13.414;2023-07-13T11:27:33;97442.38;;;25.24;42.39
35649;BME280;21768;48.562;13.414;2023-07-13T11:32:39;97433.47;;;24.92;42.55
35649;BME280;21768;48.562;13.414;2023-07-13T11:35:05;97447.25;;;24.94;42.77
35649;BME280;21768;48.562;13.414;2023-07-13T11:37:35;97440.34;;;24.90;42.34
35649;BME280;21768;48.562;13.414;2023-07-13T11:40:00;97439.41;;;24.83;44.27
35649;BME280;21768;48.562;13.414;2023-07-13T11:42:26;97443.59;;;24.70;42.48
35649;BME280;21768;48.562;13.414;2023-07-13T11:44:52;97453.88;;;24.66;42.58
35649;BME280;21768;48.562;13.414;2023-07-13T11:47:22;97447.84;;;24.67;43.14
35649;BME280;21768;48.562;13.414;2023-07-13T11:49:53;97449.75;;;24.86;43.62
35649;BME280;21768;48.562;13.414;2023-07-13T11:52:34;97450.78;;;25.02;42.84
35649;BME280;21768;48.562;13.414;2023-07-13T11:55:03;97449.19;;;25.13;41.91
35649;BME280;21768;48.562;13.414;2023-07-13T11:57:36;97443.28;;;25.31;41.90
35649;BME280;21768;48.562;13.414;2023-07-13T12:00:11;97448.47;;;25.34;41.64
35649;BME280;21768;48.562;13.414;2023-07-13T12:02:44;97450.25;;;25.41;41.44
35649;BME280;21768;48.562;13.414;2023-07-13T12:05:12;97454.63;;;25.50;41.23
35649;BME280;21768;48.562;13.414;2023-07-13T12:07:38;97439.28;;;25.68;41.25
35649;BME280;21768;48.562;13.414;2023-07-13T12:13:01;97435.38;;;26.60;40.94
35649;BME280;21768;48.562;13.414;2023-07-13T12:15:41;97421.69;;;26.96;40.20
35649;BME280;21768;48.562;13.414;2023-07-13T12:18:16;97419.09;;;27.20;40.37
35649;BME280;21768;48.562;13.414;2023-07-13T12:20:44;97413.88;;;27.25;38.82
35649;BME280;21768;48.562;13.414;2023-07-13T12:23:22;97406.97;;;27.22;37.33
35649;BME280;21768;48.562;13.414;2023-07-13T12:25:49;97403.53;;;27.20;38.14
35649;BME280;21768;48.562;13.414;2023-07-13T12:28:28;97404.34;;;27.48;39.05
35649;BME280;21768;48.562;13.414;2023-07-13T12:31:00;97400.84;;;27.81;38.67
35649;BME280;21768;48.562;13.414;2023-07-13T12:33:29;97394.72;;;27.97;37.01
35649;BME280;21768;48.562;13.414;2023-07-13T12:35:55;97386.16;;;27.80;36.90
35649;BME280;21768;48.562;13.414;2023-07-13T12:38:21;97382.69;;;27.75;37.73
35649;BME280;21768;48.562;13.414;2023-07-13T12:40:49;97383.53;;;27.86;37.16
35649;BME280;21768;48.562;13.414;2023-07-13T12:43:15;97386.13;;;27.89;36.60
35649;BME280;21768;48.562;13.414;2023-07-13T12:48:43;97378.34;;;27.86;37.89
35649;BME280;21768;48.562;13.414;2023-07-13T12:51:12;97386.91;;;28.20;35.33
35649;BME280;21768;48.562;13.414;2023-07-13T12:53:41;97381.69;;;28.22;34.71
35649;BME280;21768;48.562;13.414;2023-07-13T12:56:15;97377.31;;;28.30;36.10
35649;BME280;21768;48.562;13.414;2023-07-13T12:58:43;97373.75;;;28.49;36.61
35649;BME280;21768;48.562;13.414;2023-07-13T13:01:12;97377.22;;;28.47;34.77
35649;BME280;21768;48.562;13.414;2023-07-13T13:08:49;97372.66;;;28.88;36.09
35649;BME280;21768;48.562;13.414;2023-07-13T13:11:16;97372.59;;;28.94;34.77
35649;BME280;21768;48.562;13.414;2023-07-13T13:13:42;97356.09;;;28.97;33.51
35649;BME280;21768;48.562;13.414;2023-07-13T13:18:39;97365.75;;;28.78;33.77
35649;BME280;21768;48.562;13.414;2023-07-13T13:21:04;97363.38;;;28.46;34.93
35649;BME280;21768;48.562;13.414;2023-07-13T13:23:30;97352.00;;;28.65;35.05
35649;BME280;21768;48.562;13.414;2023-07-13T13:25:55;97349.13;;;29.02;34.11
35649;BME280;21768;48.562;13.414;2023-07-13T13:28:21;97340.34;;;29.18;34.11
35649;BME280;21768;48.562;13.414;2023-07-13T13:30:48;97334.25;;;29.19;34.76
35649;BME280;21768;48.562;13.414;2023-07-13T13:33:16;97344.63;;;29.21;33.59
35649;BME280;21768;48.562;13.414;2023-07-13T13:35:42;97343.03;;;29.07;32.96
35649;BME280;21768;48.562;13.414;2023-07-13T13:38:15;97346.66;;;28.87;33.76